createdAt,value
2019-02-12T00:00:29.129Z,1.43
2019-02-12T00:02:59.052Z,2.43
2019-02-12T00:05:27.470Z,1.60
2019-02-12T00:07:55.919Z,1.60
2019-02-12T00:10:24.343Z,2.03
2019-02-12T00:12:52.757Z,1.50
2019-02-12T00:15:21.197Z,2.10
2019-02-12T00:17:49.610Z,1.53
2019-02-12T00:20:18.036Z,3.07
2019-02-12T00:22:46.457Z,2.50
2019-02-12T00:25:14.884Z,2.10
2019-02-12T00:27:43.658Z,1.00
2019-02-12T00:30:12.040Z,2.17
2019-02-12T00:32:40.450Z,2.33
2019-02-12T00:35:08.886Z,1.87
2019-02-12T00:37:37.296Z,1.30
2019-02-12T00:40:08.398Z,1.43
2019-02-12T00:42:37.966Z,1.20
2019-02-12T00:45:09.235Z,1.13
2019-02-12T00:47:37.646Z,1.53
2019-02-12T00:50:11.097Z,1.50
2019-02-12T00:52:39.496Z,1.13
2019-02-12T00:55:08.686Z,3.03
2019-02-12T00:57:37.109Z,3.00
2019-02-12T01:00:13.656Z,4.00
2019-02-12T01:02:42.073Z,2.97
2019-02-12T01:05:10.485Z,1.60
2019-02-12T01:07:38.947Z,4.10
2019-02-12T01:10:11.194Z,1.83
2019-02-12T01:12:39.623Z,2.50
2019-02-12T01:15:12.863Z,1.67
2019-02-12T01:17:41.420Z,2.20
2019-02-12T01:20:13.313Z,2.20
2019-02-12T01:22:42.512Z,1.17
2019-02-12T01:25:10.932Z,1.67
2019-02-12T01:27:40.249Z,2.50
2019-02-12T01:30:17.525Z,2.20
2019-02-12T01:32:45.959Z,2.93
2019-02-12T01:35:14.363Z,2.33
2019-02-12T01:37:42.790Z,2.73
2019-02-12T01:40:12.348Z,2.83
2019-02-12T01:42:40.769Z,2.60
2019-02-12T01:45:12.484Z,2.90
2019-02-12T01:47:40.925Z,1.57
2019-02-12T01:50:11.085Z,2.90
2019-02-12T01:52:39.527Z,1.60
2019-02-12T01:55:08.497Z,2.27
2019-02-12T01:57:36.933Z,3.13
2019-02-12T02:00:08.378Z,1.10
2019-02-12T02:02:36.813Z,1.60
2019-02-12T02:05:07.572Z,2.60
2019-02-12T02:07:36.009Z,1.77
2019-02-12T02:10:06.831Z,1.90
2019-02-12T02:12:36.874Z,2.57
2019-02-12T02:15:08.047Z,2.40
2019-02-12T02:17:36.447Z,1.83
2019-02-12T02:20:07.781Z,2.07
2019-02-12T02:22:36.294Z,2.40
2019-02-12T02:25:08.144Z,2.57
2019-02-12T02:27:36.559Z,2.20
2019-02-12T02:30:07.037Z,1.67
2019-02-12T02:32:35.481Z,2.00
2019-02-12T02:35:05.213Z,2.47
2019-02-12T02:37:33.630Z,1.70
2019-02-12T02:40:02.072Z,1.90
2019-02-12T02:42:30.485Z,1.27
2019-02-12T02:45:00.515Z,1.20
2019-02-12T02:47:28.950Z,1.40
2019-02-12T02:49:57.348Z,3.83
2019-02-12T02:52:25.792Z,2.67
2019-02-12T02:55:00.247Z,3.57
2019-02-12T02:57:28.651Z,2.47
2019-02-12T02:59:57.345Z,3.67
2019-02-12T03:02:25.764Z,3.60
2019-02-12T03:04:54.177Z,1.97
2019-02-12T03:07:23.381Z,1.67
2019-02-12T03:09:51.787Z,3.47
2019-02-12T03:12:20.206Z,1.93
2019-02-12T03:14:48.637Z,1.23
2019-02-12T03:17:17.058Z,2.17
2019-02-12T03:19:45.495Z,2.27
2019-02-12T03:22:13.921Z,2.90
2019-02-12T03:24:42.352Z,2.90
2019-02-12T03:27:10.759Z,3.07
2019-02-12T03:29:39.187Z,2.63
2019-02-12T03:32:07.605Z,5.90
2019-02-12T03:34:36.002Z,2.20
2019-02-12T03:37:04.429Z,2.20
2019-02-12T03:39:34.115Z,2.73
2019-02-12T03:42:02.556Z,2.87
2019-02-12T03:44:30.960Z,2.67
2019-02-12T03:46:59.434Z,2.60
2019-02-12T03:49:27.842Z,1.63
2019-02-12T03:51:56.291Z,1.67
2019-02-12T03:54:24.715Z,2.87
2019-02-12T03:56:54.093Z,4.43
2019-02-12T03:59:23.295Z,2.57
2019-02-12T04:01:51.709Z,1.90
2019-02-12T04:04:20.149Z,1.97
2019-02-12T04:06:48.557Z,2.80
2019-02-12T04:09:17.003Z,2.60
2019-02-12T04:11:45.434Z,2.00
2019-02-12T04:14:13.898Z,1.60
2019-02-12T04:16:42.304Z,1.43
2019-02-12T04:19:10.741Z,1.60
2019-02-12T04:21:39.432Z,1.40
2019-02-12T04:24:07.888Z,1.97
2019-02-12T04:26:36.295Z,1.83
2019-02-12T04:29:04.708Z,1.67
2019-02-12T04:31:33.138Z,1.37
2019-02-12T04:34:01.550Z,1.57
2019-02-12T04:36:29.976Z,1.40
2019-02-12T04:38:58.388Z,1.50
2019-02-12T04:41:26.835Z,1.70
2019-02-12T04:43:55.245Z,1.70
2019-02-12T04:46:23.686Z,1.40
2019-02-12T04:48:52.219Z,1.97
2019-02-12T04:51:20.620Z,1.93
2019-02-12T04:53:49.054Z,1.90
2019-02-12T04:56:17.485Z,1.83
2019-02-12T04:58:45.945Z,3.27
2019-02-12T05:01:14.322Z,2.33
2019-02-12T05:03:42.752Z,1.47
2019-02-12T05:06:12.837Z,2.97
2019-02-12T05:11:42.344Z,1.97
2019-02-12T05:14:11.195Z,3.00
2019-02-12T05:16:39.637Z,2.33
2019-02-12T05:19:08.182Z,2.27
2019-02-12T05:21:36.604Z,1.93
2019-02-12T05:24:05.014Z,1.80
2019-02-12T05:26:33.461Z,1.63
2019-02-12T05:29:01.902Z,1.83
2019-02-12T05:31:30.329Z,2.43
2019-02-12T05:33:58.734Z,1.67
2019-02-12T05:36:27.148Z,2.73
2019-02-12T05:38:55.582Z,1.30
2019-02-12T05:41:23.992Z,2.40
2019-02-12T05:43:52.430Z,2.00
2019-02-12T05:46:22.228Z,1.63
2019-02-12T05:48:50.646Z,1.70
2019-02-12T05:51:19.050Z,2.63
2019-02-12T05:53:47.502Z,1.83
2019-02-12T05:56:16.468Z,3.50
2019-02-12T05:58:44.897Z,1.77
2019-02-12T06:01:13.781Z,2.77
2019-02-12T06:03:42.232Z,2.83
2019-02-12T06:06:10.651Z,1.40
2019-02-12T06:08:39.049Z,2.37
2019-02-12T06:11:07.488Z,2.27
2019-02-12T06:13:35.911Z,1.40
2019-02-12T06:16:04.328Z,1.83
2019-02-12T06:18:33.671Z,1.90
2019-02-12T06:21:02.118Z,2.53
2019-02-12T06:23:30.520Z,1.50
2019-02-12T06:25:58.948Z,2.27
2019-02-12T06:28:27.353Z,1.87
2019-02-12T06:30:56.017Z,2.27
2019-02-12T06:33:24.447Z,3.17
2019-02-12T06:35:52.848Z,1.83
2019-02-12T06:40:48.061Z,4.13
2019-02-12T06:43:16.503Z,1.83
2019-02-12T06:45:44.912Z,2.83
2019-02-12T06:48:13.367Z,2.30
2019-02-12T06:50:41.764Z,2.03
2019-02-12T06:53:12.545Z,1.90
2019-02-12T06:55:40.353Z,1.40
2019-02-12T06:58:08.752Z,2.20
2019-02-12T07:00:38.411Z,1.63
2019-02-12T07:03:11.112Z,2.03
2019-02-12T07:06:00.367Z,2.53
2019-02-12T07:08:49.971Z,1.53
2019-02-12T07:11:50.244Z,3.10
2019-02-12T07:14:30.652Z,2.90
2019-02-12T07:17:20.318Z,1.70
2019-02-12T07:20:11.489Z,2.93
2019-02-12T07:23:02.335Z,1.87
2019-02-12T07:25:48.867Z,3.07
2019-02-12T07:28:43.996Z,2.73
2019-02-12T07:31:34.739Z,2.37
2019-02-12T07:34:06.447Z,2.77
2019-02-12T07:36:41.358Z,3.23
2019-02-12T07:39:18.432Z,2.37
2019-02-12T07:41:53.055Z,2.30
2019-02-12T07:44:34.347Z,1.73
2019-02-12T07:47:08.667Z,2.00
2019-02-12T07:49:58.209Z,3.97
2019-02-12T07:52:32.843Z,4.77
2019-02-12T07:55:04.521Z,3.50
2019-02-12T07:57:56.809Z,9.07
2019-02-12T08:00:56.658Z,10.83
2019-02-12T08:03:52.268Z,6.40
2019-02-12T08:06:24.209Z,5.53
2019-02-12T08:09:15.339Z,3.43
2019-02-12T08:11:55.584Z,1.90
2019-02-12T08:14:27.273Z,1.47
2019-02-12T08:17:34.030Z,6.43
2019-02-12T08:20:10.850Z,3.40
2019-02-12T08:23:00.529Z,3.93
2019-02-12T08:25:41.000Z,2.80
2019-02-12T08:28:15.509Z,3.73
2019-02-12T08:30:56.372Z,3.57
2019-02-12T08:33:44.381Z,2.53
2019-02-12T08:36:37.136Z,2.07
2019-02-12T08:39:23.772Z,2.27
2019-02-12T08:42:13.008Z,2.17
2019-02-12T08:44:59.504Z,1.77
2019-02-12T08:47:37.161Z,4.77
2019-02-12T08:50:11.832Z,3.23
2019-02-12T08:53:14.203Z,4.43
2019-02-12T08:55:45.893Z,2.40
2019-02-12T08:58:29.524Z,4.70
2019-02-12T09:01:01.208Z,2.47
2019-02-12T09:03:53.807Z,1.67
2019-02-12T09:06:49.509Z,4.40
2019-02-12T09:09:33.101Z,2.30
2019-02-12T09:12:26.771Z,3.37
2019-02-12T09:15:17.780Z,2.53
2019-02-12T09:18:01.155Z,2.30
2019-02-12T09:20:47.777Z,2.43
2019-02-12T09:23:19.476Z,2.00
2019-02-12T09:25:51.136Z,4.87
2019-02-12T09:28:22.826Z,1.90
2019-02-12T09:30:54.497Z,4.03
2019-02-12T09:33:40.990Z,2.47
2019-02-12T09:36:24.510Z,2.00
2019-02-12T09:38:58.826Z,12.23
2019-02-12T09:41:33.253Z,11.00
2019-02-12T09:44:36.551Z,7.17
2019-02-12T09:47:16.866Z,12.77
2019-02-12T09:49:54.271Z,7.43
2019-02-12T09:52:42.433Z,6.87
2019-02-12T09:55:45.698Z,14.07
2019-02-12T09:58:17.392Z,7.87
2019-02-12T10:00:49.075Z,7.57
2019-02-12T10:03:23.274Z,10.83
2019-02-12T10:06:21.545Z,8.20
2019-02-12T10:09:14.191Z,10.30
2019-02-12T10:11:54.469Z,7.60
2019-02-12T10:14:32.072Z,5.80
2019-02-12T10:17:12.615Z,7.33
2019-02-12T10:19:47.216Z,9.13
2019-02-12T10:22:35.374Z,7.23
2019-02-12T10:25:10.215Z,6.30
2019-02-12T10:28:02.582Z,9.80
2019-02-12T10:30:37.186Z,5.87
2019-02-12T10:33:05.888Z,6.03
2019-02-12T10:35:34.345Z,8.23
2019-02-12T10:38:02.737Z,9.63
2019-02-12T10:40:31.156Z,6.37
2019-02-12T10:42:59.593Z,6.00
2019-02-12T10:45:27.987Z,6.57
2019-02-12T10:47:56.463Z,6.83
2019-02-12T10:50:25.323Z,5.97
2019-02-12T10:55:27.117Z,4.80
2019-02-12T10:57:57.863Z,4.93
2019-02-12T11:00:26.328Z,5.60
2019-02-12T11:02:55.028Z,7.10
2019-02-12T11:05:24.009Z,5.43
2019-02-12T11:07:53.870Z,6.40
2019-02-12T11:10:22.274Z,5.70
2019-02-12T11:12:51.376Z,4.80
2019-02-12T11:15:19.786Z,7.67
2019-02-12T11:17:48.220Z,5.73
2019-02-12T11:20:16.634Z,4.43
2019-02-12T11:22:45.054Z,4.50
2019-02-12T11:25:13.488Z,2.37
2019-02-12T11:27:41.900Z,5.20
2019-02-12T11:30:12.540Z,6.90
2019-02-12T11:32:40.953Z,5.47
2019-02-12T11:35:12.749Z,2.83
2019-02-12T11:37:41.164Z,4.17
2019-02-12T11:40:13.344Z,3.63
2019-02-12T11:42:41.914Z,3.00
2019-02-12T11:45:13.523Z,2.33
2019-02-12T11:47:41.941Z,4.40
2019-02-12T11:50:10.981Z,4.20
2019-02-12T11:52:39.421Z,3.30
2019-02-12T11:55:14.901Z,3.27
2019-02-12T11:57:43.338Z,4.33
2019-02-12T12:00:15.833Z,5.80
2019-02-12T12:02:44.264Z,4.93
2019-02-12T12:05:12.688Z,4.07
2019-02-12T12:07:41.121Z,3.37
2019-02-12T12:10:10.481Z,5.33
2019-02-12T12:12:38.909Z,4.07
2019-02-12T12:15:09.760Z,3.57
2019-02-12T12:17:38.360Z,5.27
2019-02-12T12:20:09.878Z,5.20
2019-02-12T12:22:38.299Z,3.77
2019-02-12T12:25:08.977Z,2.77
2019-02-12T12:27:37.389Z,3.97
2019-02-12T12:30:09.063Z,3.93
2019-02-12T12:32:37.482Z,2.37
2019-02-12T12:35:08.159Z,3.87
2019-02-12T12:37:36.581Z,3.40
2019-02-12T12:40:09.807Z,3.80
2019-02-12T12:42:38.795Z,3.57
2019-02-12T12:45:10.521Z,3.57
2019-02-12T12:47:38.932Z,2.83
2019-02-12T12:50:09.905Z,2.43
2019-02-12T12:52:38.299Z,2.67
2019-02-12T12:55:09.548Z,4.20
2019-02-12T12:57:41.908Z,2.47
2019-02-12T13:00:11.338Z,4.47
2019-02-12T13:02:39.761Z,4.20
2019-02-12T13:05:08.512Z,2.87
2019-02-12T13:07:37.511Z,4.17
2019-02-12T13:10:11.178Z,2.43
2019-02-12T13:12:39.595Z,4.30
2019-02-12T13:15:10.553Z,3.57
2019-02-12T13:17:38.992Z,2.73
2019-02-12T13:20:10.340Z,2.70
2019-02-12T13:22:38.773Z,3.73
2019-02-12T13:25:08.979Z,2.30
2019-02-12T13:27:38.268Z,3.93
2019-02-12T13:30:15.877Z,4.50
2019-02-12T13:32:44.850Z,2.63
2019-02-12T13:35:14.922Z,3.07
2019-02-12T13:37:43.590Z,2.60
2019-02-12T13:40:12.886Z,3.17
2019-02-12T13:42:41.304Z,2.43
2019-02-12T13:45:14.217Z,5.53
2019-02-12T13:47:42.689Z,4.57
2019-02-12T13:50:11.961Z,2.70
2019-02-12T13:52:40.373Z,4.63
2019-02-12T13:55:16.913Z,2.97
2019-02-12T13:57:39.597Z,3.37
2019-02-12T14:00:15.007Z,3.80
2019-02-12T14:02:43.893Z,4.37
2019-02-12T14:05:20.950Z,3.03
2019-02-12T14:07:50.510Z,5.83
2019-02-12T14:10:18.906Z,3.30
2019-02-12T14:12:47.327Z,6.70
2019-02-12T14:15:15.731Z,3.13
2019-02-12T14:17:44.167Z,5.13
2019-02-12T14:20:16.662Z,5.03
2019-02-12T14:22:45.102Z,3.83
2019-02-12T14:25:14.440Z,4.40
2019-02-12T14:27:42.881Z,5.77
2019-02-12T14:30:14.297Z,3.23
2019-02-12T14:32:42.731Z,2.70
2019-02-12T14:35:12.195Z,2.90
2019-02-12T14:37:40.616Z,3.47
2019-02-12T14:40:16.300Z,3.50
2019-02-12T14:42:44.712Z,2.83
2019-02-12T14:45:16.984Z,2.03
2019-02-12T14:47:45.400Z,3.20
2019-02-12T14:50:15.091Z,3.43
2019-02-12T14:52:43.493Z,2.57
2019-02-12T14:55:11.924Z,4.20
2019-02-12T14:57:40.352Z,2.53
2019-02-12T15:00:15.870Z,2.53
2019-02-12T15:02:44.288Z,2.73
2019-02-12T15:05:12.713Z,2.77
2019-02-12T15:07:41.113Z,3.10
2019-02-12T15:10:14.154Z,1.87
2019-02-12T15:12:42.580Z,3.90
2019-02-12T15:15:11.149Z,2.30
2019-02-12T15:17:39.564Z,2.80
2019-02-12T15:20:11.261Z,4.73
2019-02-12T15:22:39.678Z,6.20
2019-02-12T15:25:10.237Z,1.93
2019-02-12T15:27:38.628Z,1.70
2019-02-12T15:30:20.269Z,2.93
2019-02-12T15:32:48.705Z,4.27
2019-02-12T15:35:17.126Z,5.17
2019-02-12T15:40:17.253Z,3.00
2019-02-12T15:42:46.026Z,1.73
2019-02-12T15:45:16.773Z,1.90
2019-02-12T15:47:45.205Z,4.00
2019-02-12T15:50:15.256Z,3.97
2019-02-12T15:52:51.109Z,3.40
2019-02-12T15:55:24.781Z,2.77
2019-02-12T15:57:53.213Z,3.17
2019-02-12T16:00:21.640Z,3.03
2019-02-12T16:02:50.195Z,3.63
2019-02-12T16:05:18.681Z,3.63
2019-02-12T16:07:48.589Z,1.87
2019-02-12T16:10:20.249Z,2.30
2019-02-12T16:12:51.058Z,2.47
2019-02-12T16:15:21.903Z,2.20
2019-02-12T16:17:50.893Z,2.43
2019-02-12T16:20:19.326Z,1.83
2019-02-12T16:22:47.753Z,3.67
2019-02-12T16:27:45.205Z,3.60
2019-02-12T16:30:23.030Z,1.77
2019-02-12T16:32:52.005Z,1.50
2019-02-12T16:35:26.234Z,1.90
2019-02-12T16:37:54.643Z,4.13
2019-02-12T16:40:23.403Z,2.23
2019-02-12T16:42:53.705Z,2.23
2019-02-12T16:45:34.324Z,4.67
2019-02-12T16:48:02.749Z,3.20
2019-02-12T16:50:31.152Z,2.63
2019-02-12T16:52:59.586Z,3.00
2019-02-12T16:55:29.016Z,3.77
2019-02-12T16:57:57.457Z,3.87
2019-02-12T17:00:25.869Z,1.97
2019-02-12T17:02:54.301Z,1.40
2019-02-12T17:05:22.724Z,2.10
2019-02-12T17:07:51.159Z,3.53
2019-02-12T17:10:19.558Z,2.03
2019-02-12T17:12:48.026Z,5.13
2019-02-12T17:15:16.433Z,1.77
2019-02-12T17:17:44.870Z,3.37
2019-02-12T17:20:17.495Z,2.50
2019-02-12T17:22:45.917Z,2.40
2019-02-12T17:25:16.513Z,3.37
2019-02-12T17:27:44.660Z,2.10
2019-02-12T17:30:17.285Z,3.03
2019-02-12T17:32:45.698Z,3.40
2019-02-12T17:35:14.302Z,4.60
2019-02-12T17:37:42.741Z,2.37
2019-02-12T17:40:16.551Z,4.10
2019-02-12T17:42:48.493Z,2.17
2019-02-12T17:45:23.112Z,3.67
2019-02-12T17:47:53.148Z,2.80
2019-02-12T17:50:25.101Z,1.93
2019-02-12T17:53:01.434Z,2.20
2019-02-12T17:55:29.880Z,3.73
2019-02-12T17:57:58.282Z,8.30
2019-02-12T18:00:28.355Z,5.10
2019-02-12T18:02:57.334Z,5.70
2019-02-12T18:05:27.165Z,11.47
2019-02-12T18:07:59.548Z,7.20
2019-02-12T18:10:27.956Z,6.93
2019-02-12T18:12:56.401Z,4.23
2019-02-12T18:15:24.805Z,3.07
2019-02-12T18:17:53.240Z,4.90
2019-02-12T18:20:26.518Z,3.67
2019-02-12T18:22:51.745Z,3.27
2019-02-12T18:25:20.268Z,4.20
2019-02-12T18:27:48.679Z,7.27
2019-02-12T18:30:17.751Z,3.13
2019-02-12T18:32:46.190Z,3.60
2019-02-12T18:35:15.183Z,4.63
2019-02-12T18:37:43.599Z,4.57
2019-02-12T18:40:18.471Z,7.53
2019-02-12T18:42:46.864Z,5.67
2019-02-12T18:45:23.039Z,13.33
2019-02-12T18:47:51.449Z,5.37
2019-02-12T18:50:20.669Z,3.60
2019-02-12T18:52:49.081Z,3.80
2019-02-12T18:55:17.561Z,2.53
2019-02-12T18:57:45.974Z,4.10
2019-02-12T19:00:17.189Z,3.30
2019-02-12T19:02:45.619Z,3.93
2019-02-12T19:05:14.028Z,2.83
2019-02-12T19:07:42.959Z,2.97
2019-02-12T19:10:13.315Z,5.63
2019-02-12T19:12:42.700Z,3.93
2019-02-12T19:15:19.878Z,2.87
2019-02-12T19:18:00.804Z,3.53
2019-02-12T19:20:29.211Z,4.40
2019-02-12T19:22:57.654Z,2.83
2019-02-12T19:25:26.051Z,4.80
2019-02-12T19:27:54.475Z,2.30
2019-02-12T19:30:22.881Z,2.87
2019-02-12T19:32:51.288Z,3.57
2019-02-12T19:35:19.712Z,3.87
2019-02-12T19:37:48.684Z,2.13
2019-02-12T19:40:17.121Z,4.07
2019-02-12T19:42:45.532Z,2.23
2019-02-12T19:45:15.508Z,2.47
2019-02-12T19:47:43.916Z,2.17
2019-02-12T19:50:12.416Z,2.00
2019-02-12T19:52:40.822Z,2.80
2019-02-12T19:55:09.750Z,4.43
2019-02-12T19:57:38.175Z,1.70
2019-02-12T20:00:18.747Z,3.00
2019-02-12T20:02:47.257Z,3.30
2019-02-12T20:05:15.738Z,4.53
2019-02-12T20:07:45.193Z,4.17
2019-02-12T20:10:14.444Z,2.67
2019-02-12T20:12:42.889Z,2.90
2019-02-12T20:15:18.701Z,2.27
2019-02-12T20:17:47.152Z,3.97
2019-02-12T20:20:15.545Z,1.93
2019-02-12T20:22:43.989Z,3.00
2019-02-12T20:25:12.393Z,5.77
2019-02-12T20:27:40.893Z,3.63
2019-02-12T20:30:17.361Z,4.27
2019-02-12T20:32:45.784Z,4.60
2019-02-12T20:35:15.732Z,3.30
2019-02-12T20:37:44.186Z,5.90
2019-02-12T20:40:13.725Z,2.23
2019-02-12T20:42:42.140Z,3.33
2019-02-12T20:45:13.364Z,2.70
2019-02-12T20:47:41.777Z,2.50
2019-02-12T20:50:12.340Z,1.93
2019-02-12T20:52:42.645Z,3.60
2019-02-12T20:55:11.500Z,2.80
2019-02-12T20:57:39.884Z,2.77
2019-02-12T21:00:16.366Z,4.47
2019-02-12T21:02:45.781Z,4.27
2019-02-12T21:05:15.546Z,1.70
2019-02-12T21:07:44.099Z,2.00
2019-02-12T21:10:20.722Z,2.13
2019-02-12T21:12:50.608Z,1.73
2019-02-12T21:15:23.822Z,2.90
2019-02-12T21:17:52.256Z,2.13
2019-02-12T21:20:20.676Z,2.30
2019-02-12T21:22:49.111Z,2.00
2019-02-12T21:25:19.138Z,1.63
2019-02-12T21:27:47.586Z,1.70
2019-02-12T21:30:24.714Z,2.10
2019-02-12T21:32:53.748Z,5.27
2019-02-12T21:35:22.148Z,2.53
2019-02-12T21:37:50.705Z,1.40
2019-02-12T21:40:28.423Z,3.10
2019-02-12T21:42:57.840Z,2.53
2019-02-12T21:45:26.252Z,1.90
2019-02-12T21:47:54.667Z,3.63
2019-02-12T21:50:27.310Z,2.97
2019-02-12T21:52:56.841Z,1.60
2019-02-12T21:55:25.306Z,2.33
2019-02-12T21:57:53.688Z,2.57
2019-02-12T22:00:22.776Z,2.90
2019-02-12T22:02:51.191Z,3.30
2019-02-12T22:05:19.616Z,2.93
2019-02-12T22:07:48.025Z,1.93
2019-02-12T22:10:21.974Z,2.43
2019-02-12T22:12:50.407Z,2.63
2019-02-12T22:15:18.817Z,1.57
2019-02-12T22:17:47.245Z,2.10
2019-02-12T22:20:24.030Z,1.90
2019-02-12T22:22:53.395Z,1.40
2019-02-12T22:25:21.803Z,2.20
2019-02-12T22:27:50.244Z,4.47
2019-02-12T22:30:21.040Z,2.83
2019-02-12T22:32:49.497Z,2.37
2019-02-12T22:35:19.000Z,2.07
2019-02-12T22:37:47.404Z,2.40
2019-02-12T22:40:16.481Z,2.57
2019-02-12T22:42:44.889Z,2.77
2019-02-12T22:45:19.936Z,1.73
2019-02-12T22:47:48.359Z,2.23
2019-02-12T22:50:16.793Z,2.47
2019-02-12T22:52:45.199Z,2.97
2019-02-12T22:55:13.649Z,1.60
2019-02-12T22:57:48.987Z,1.77
2019-02-12T23:00:49.801Z,2.43
2019-02-12T23:03:18.455Z,1.97
2019-02-12T23:05:46.961Z,1.87
2019-02-12T23:08:15.355Z,2.90
2019-02-12T23:10:43.769Z,1.77
2019-02-12T23:13:12.203Z,2.60
2019-02-12T23:15:40.613Z,2.77
2019-02-12T23:18:09.171Z,3.23
2019-02-12T23:20:37.585Z,2.37
2019-02-12T23:23:07.362Z,1.80
2019-02-12T23:25:36.939Z,1.40
2019-02-12T23:28:05.370Z,2.27
2019-02-12T23:30:33.771Z,2.40
2019-02-12T23:33:02.203Z,1.97
2019-02-12T23:35:30.622Z,1.90
2019-02-12T23:38:01.961Z,2.63
2019-02-12T23:40:30.364Z,3.53
2019-02-12T23:42:58.806Z,2.20
2019-02-12T23:45:28.613Z,1.80
2019-02-12T23:47:57.025Z,2.63
2019-02-12T23:50:25.463Z,2.00
2019-02-12T23:52:59.304Z,2.27
2019-02-12T23:55:27.734Z,3.90
2019-02-12T23:57:56.141Z,1.40
